Battle Lake, Minnesota
Current Conditions -  °F | °C
As of 8:54 AM on Thursday 30 Oct 2014 (Local Time) from KFFM Reporting Station
Overcast Overcast  
Wind Chill: 39°   Ceiling: 2100
Heat Index: 39°   Visibility: 7mi
Dew Point: 37°   Wind: 3mph
Humidity: 93%   Direction: 20°NNE
Pressure: 30.11"   Gusts: NA
Location:  46.28°N, 95.71°W
Report Text: KFFM 301354Z AUTO 02003KT 7SM OVC021 04/03 A3011 RMK AO2
Loading
Personal Weather Stations






























Interactive Weather Map
Tropical Storm Tracking
New forecast layout! Learn more

10-Day Weather Forecast

Advertisements
Track Severe Weather on mobile